createdAt,value
2019-04-03T00:01:08.987Z,13.11
2019-04-03T00:03:38.492Z,13.19
2019-04-03T00:06:08.005Z,12.86
2019-04-03T00:08:37.524Z,12.70
2019-04-03T00:11:09.393Z,13.07
2019-04-03T00:13:41.483Z,12.96
2019-04-03T00:16:09.517Z,12.81
2019-04-03T00:18:39.030Z,12.59
2019-04-03T00:21:08.518Z,12.42
2019-04-03T00:23:38.065Z,12.34
2019-04-03T00:26:07.615Z,12.89
2019-04-03T00:28:37.094Z,12.72
2019-04-03T00:31:06.594Z,12.57
2019-04-03T00:33:36.239Z,12.43
2019-04-03T00:36:05.912Z,12.68
2019-04-03T00:38:35.585Z,12.15
2019-04-03T00:41:05.666Z,12.04
2019-04-03T00:43:35.114Z,12.19
2019-04-03T00:46:04.787Z,12.19
2019-04-03T00:48:34.294Z,12.80
2019-04-03T00:51:03.909Z,12.71
2019-04-03T00:53:33.413Z,12.73
2019-04-03T00:56:03.091Z,12.74
2019-04-03T00:58:43.133Z,12.68
2019-04-03T01:01:12.923Z,12.36
2019-04-03T01:03:42.900Z,12.21
2019-04-03T01:06:12.580Z,12.00
2019-04-03T01:08:42.115Z,11.82
2019-04-03T01:11:11.761Z,11.74
2019-04-03T01:13:41.378Z,11.74
2019-04-03T01:16:10.905Z,12.21
2019-04-03T01:18:40.389Z,12.19
2019-04-03T01:21:09.901Z,12.06
2019-04-03T01:23:39.389Z,12.31
2019-04-03T01:26:10.035Z,12.09
2019-04-03T01:28:41.694Z,11.85
2019-04-03T01:31:14.161Z,11.41
2019-04-03T01:33:46.077Z,11.09
2019-04-03T01:36:17.126Z,10.81
2019-04-03T01:38:46.358Z,10.72
2019-04-03T01:41:15.994Z,10.61
2019-04-03T01:43:45.461Z,10.48
2019-04-03T01:46:15.243Z,10.36
2019-04-03T01:48:44.762Z,10.30
2019-04-03T01:51:14.298Z,10.22
2019-04-03T01:53:43.785Z,10.16
2019-04-03T01:56:13.330Z,10.15
2019-04-03T01:58:43.431Z,10.16
2019-04-03T02:01:12.972Z,10.84
2019-04-03T02:03:42.504Z,10.63
2019-04-03T02:06:13.572Z,10.24
2019-04-03T02:08:44.953Z,10.03
2019-04-03T02:11:14.784Z,9.86
2019-04-03T02:13:44.295Z,10.15
2019-04-03T02:16:13.830Z,10.03
2019-04-03T02:18:43.340Z,10.19
2019-04-03T02:21:12.849Z,10.05
2019-04-03T02:23:42.472Z,10.42
2019-04-03T02:26:11.984Z,10.14
2019-04-03T02:28:41.485Z,10.23
2019-04-03T02:31:11.257Z,10.08
2019-04-03T02:33:40.762Z,10.20
2019-04-03T02:36:12.580Z,9.85
2019-04-03T02:38:41.775Z,9.46
2019-04-03T02:41:11.283Z,9.20
2019-04-03T02:43:41.103Z,9.07
2019-04-03T02:46:10.690Z,9.54
2019-04-03T02:48:40.170Z,9.11
2019-04-03T02:51:09.966Z,8.93
2019-04-03T02:53:39.546Z,8.89
2019-04-03T02:56:11.846Z,9.16
2019-04-03T02:58:40.358Z,8.81
2019-04-03T03:01:09.889Z,8.49
2019-04-03T03:03:39.398Z,8.51
2019-04-03T03:06:09.169Z,8.69
2019-04-03T03:08:41.647Z,8.61
2019-04-03T03:11:10.120Z,8.67
2019-04-03T03:13:39.959Z,8.49
2019-04-03T03:16:10.496Z,8.11
2019-04-03T03:18:40.442Z,8.67
2019-04-03T03:21:12.859Z,8.39
2019-04-03T03:23:42.190Z,8.09
2019-04-03T03:26:12.062Z,8.34
2019-04-03T03:28:46.821Z,8.62
2019-04-03T03:31:15.256Z,9.00
2019-04-03T03:33:46.708Z,9.04
2019-04-03T03:36:21.893Z,8.65
2019-04-03T03:38:48.439Z,8.32
2019-04-03T03:41:22.109Z,7.81
2019-04-03T03:43:49.851Z,7.49
2019-04-03T03:46:19.964Z,7.23
2019-04-03T03:48:50.506Z,7.13
2019-04-03T03:51:22.166Z,7.00
2019-04-03T03:53:52.072Z,6.86
2019-04-03T03:56:22.229Z,6.75
2019-04-03T03:58:53.137Z,6.66
2019-04-03T04:01:23.216Z,6.56
2019-04-03T04:03:53.615Z,6.49
2019-04-03T04:06:25.561Z,6.39
2019-04-03T04:08:54.787Z,6.31
2019-04-03T04:11:24.444Z,6.22
2019-04-03T04:13:54.649Z,6.17
2019-04-03T04:16:24.219Z,6.07
2019-04-03T04:18:57.378Z,6.40
2019-04-03T04:21:25.873Z,6.26
2019-04-03T04:23:57.228Z,6.07
2019-04-03T04:26:27.395Z,5.96
2019-04-03T04:28:57.039Z,5.93
2019-04-03T04:31:26.540Z,5.86
2019-04-03T04:33:56.099Z,5.76
2019-04-03T04:36:25.600Z,5.98
2019-04-03T04:38:55.804Z,6.32
2019-04-03T04:41:26.295Z,6.17
2019-04-03T04:43:55.877Z,6.09
2019-04-03T04:46:25.353Z,5.61
2019-04-03T04:48:54.853Z,5.43
2019-04-03T04:51:25.864Z,5.29
2019-04-03T04:53:55.627Z,5.26
2019-04-03T04:56:25.335Z,5.21
2019-04-03T04:58:55.040Z,5.17
2019-04-03T05:01:24.567Z,5.23
2019-04-03T05:03:54.556Z,5.25
2019-04-03T05:06:24.500Z,5.27
2019-04-03T05:08:55.127Z,5.54
2019-04-03T05:11:24.925Z,5.95
2019-04-03T05:13:54.440Z,5.89
2019-04-03T05:16:24.968Z,5.82
2019-04-03T05:18:55.414Z,5.57
2019-04-03T05:21:24.927Z,5.52
2019-04-03T05:23:56.070Z,5.61
2019-04-03T05:26:25.660Z,5.95
2019-04-03T05:28:57.622Z,5.72
2019-04-03T05:31:26.704Z,5.53
2019-04-03T05:33:56.485Z,5.56
2019-04-03T05:36:26.024Z,5.60
2019-04-03T05:38:56.192Z,5.92
2019-04-03T05:41:27.666Z,6.34
2019-04-03T05:43:56.952Z,6.30
2019-04-03T05:46:26.440Z,6.31
2019-04-03T05:48:55.967Z,6.62
2019-04-03T05:51:26.018Z,7.00
2019-04-03T05:53:55.531Z,7.12
2019-04-03T05:56:25.047Z,7.17
2019-04-03T05:58:57.239Z,7.37
2019-04-03T06:01:25.799Z,7.43
2019-04-03T06:03:55.400Z,7.70
2019-04-03T06:06:25.082Z,8.09
2019-04-03T06:08:56.477Z,8.33
2019-04-03T06:11:25.748Z,8.43
2019-04-03T06:13:55.264Z,8.82
2019-04-03T06:16:25.039Z,9.11
2019-04-03T06:18:54.536Z,8.90
2019-04-03T06:21:24.198Z,8.72
2019-04-03T06:23:53.975Z,8.52
2019-04-03T06:26:23.582Z,9.02
2019-04-03T06:28:53.046Z,9.07
2019-04-03T06:31:24.328Z,8.86
2019-04-03T06:33:54.397Z,8.67
2019-04-03T06:36:25.129Z,9.03
2019-04-03T06:38:56.155Z,9.40
2019-04-03T06:41:25.951Z,10.03
2019-04-03T06:43:55.464Z,10.67
2019-04-03T06:46:24.978Z,11.78
2019-04-03T06:48:55.660Z,13.03
2019-04-03T06:51:25.664Z,14.19
2019-04-03T06:53:55.172Z,13.68
2019-04-03T06:56:24.718Z,13.05
2019-04-03T06:58:54.266Z,13.06
2019-04-03T07:01:23.905Z,13.13
2019-04-03T07:03:53.592Z,13.66
2019-04-03T07:06:23.096Z,13.64
2019-04-03T07:08:52.722Z,14.10
2019-04-03T07:11:23.627Z,16.58
2019-04-03T07:13:54.567Z,17.25
2019-04-03T07:16:24.289Z,17.84
2019-04-03T07:18:53.795Z,18.94
2019-04-03T07:21:24.583Z,22.19
2019-04-03T07:23:54.522Z,23.42
2019-04-03T07:26:24.159Z,23.22
2019-04-03T07:28:53.785Z,23.73
2019-04-03T07:31:24.338Z,22.23
2019-04-03T07:33:54.074Z,21.02
2019-04-03T07:36:23.858Z,20.83
2019-04-03T07:38:53.394Z,22.64
2019-04-03T07:41:23.510Z,21.93
2019-04-03T07:43:53.071Z,23.80
2019-04-03T07:46:23.196Z,23.64
2019-04-03T07:48:53.576Z,24.33
2019-04-03T07:51:23.112Z,24.87
2019-04-03T07:53:52.946Z,21.73
2019-04-03T07:56:25.580Z,21.88
2019-04-03T07:58:53.679Z,21.33
2019-04-03T08:01:23.141Z,21.85
2019-04-03T08:03:53.406Z,22.78
2019-04-03T08:06:22.919Z,23.42
2019-04-03T08:09:05.590Z,25.40
2019-04-03T08:11:23.737Z,25.98
2019-04-03T08:13:53.397Z,25.06
2019-04-03T08:16:22.922Z,24.70
2019-04-03T08:18:52.509Z,24.35
2019-04-03T08:21:22.018Z,25.12
2019-04-03T08:23:52.797Z,25.50
2019-04-03T08:26:22.551Z,26.20
2019-04-03T08:28:52.080Z,25.90
2019-04-03T08:31:21.575Z,26.33
2019-04-03T08:33:51.715Z,25.62
2019-04-03T08:36:24.974Z,25.73
2019-04-03T08:38:53.028Z,26.56
2019-04-03T08:41:24.256Z,25.90
2019-04-03T08:43:53.868Z,25.21
2019-04-03T08:46:23.379Z,26.14
2019-04-03T08:48:55.129Z,25.26
2019-04-03T08:51:24.621Z,26.05
2019-04-03T08:53:54.929Z,26.56
2019-04-03T08:56:24.450Z,27.61
2019-04-03T08:58:54.848Z,26.16
2019-04-03T09:01:25.446Z,26.35
2019-04-03T09:03:55.036Z,25.59
2019-04-03T09:06:24.854Z,28.03
2019-04-03T09:08:57.186Z,26.68
2019-04-03T09:11:25.690Z,26.74
2019-04-03T09:13:55.804Z,29.23
2019-04-03T09:16:25.761Z,28.59
2019-04-03T09:18:55.269Z,26.37
2019-04-03T09:21:25.128Z,26.60
2019-04-03T09:23:57.160Z,28.83
2019-04-03T09:26:26.637Z,28.58
2019-04-03T09:28:56.123Z,27.94
2019-04-03T09:31:25.633Z,28.01
2019-04-03T09:33:56.968Z,28.71
2019-04-03T09:36:26.352Z,29.93
2019-04-03T09:38:55.952Z,29.81
2019-04-03T09:41:25.434Z,30.18
2019-04-03T09:43:54.968Z,27.64
2019-04-03T09:46:24.636Z,28.89
2019-04-03T09:48:54.237Z,27.49
2019-04-03T09:51:23.751Z,30.30
2019-04-03T09:53:53.251Z,28.02
2019-04-03T09:56:23.359Z,27.59
2019-04-03T09:58:55.772Z,28.31
2019-04-03T10:01:24.070Z,27.92
2019-04-03T10:03:55.088Z,28.36
2019-04-03T10:06:24.826Z,28.84
2019-04-03T10:08:54.626Z,29.36
2019-04-03T10:11:24.310Z,32.03
2019-04-03T10:13:56.541Z,30.61
2019-04-03T10:16:25.348Z,27.40
2019-04-03T10:18:54.884Z,29.53
2019-04-03T10:21:24.467Z,30.35
2019-04-03T10:23:53.971Z,29.54
2019-04-03T10:26:23.463Z,27.56
2019-04-03T10:28:52.997Z,29.89
2019-04-03T10:31:24.225Z,27.36
2019-04-03T10:33:54.078Z,26.80
2019-04-03T10:36:23.609Z,27.73
2019-04-03T10:38:53.105Z,27.43
2019-04-03T10:41:22.598Z,26.58
2019-04-03T10:43:52.263Z,26.16
2019-04-03T10:46:21.777Z,29.80
2019-04-03T10:48:51.285Z,29.66
2019-04-03T10:51:20.964Z,25.17
2019-04-03T10:53:51.467Z,26.73
2019-04-03T10:56:21.682Z,25.05
2019-04-03T10:58:51.228Z,26.28
2019-04-03T11:01:20.724Z,30.07
2019-04-03T11:03:50.224Z,31.20
2019-04-03T11:06:21.224Z,30.78
2019-04-03T11:08:51.029Z,28.88
2019-04-03T11:11:20.510Z,27.53
2019-04-03T11:13:50.113Z,27.78
2019-04-03T11:16:19.662Z,25.71
2019-04-03T11:18:58.477Z,27.66
2019-04-03T11:21:20.842Z,24.49
2019-04-03T11:23:50.347Z,25.87
2019-04-03T11:26:23.657Z,26.55
2019-04-03T11:28:51.410Z,27.90
2019-04-03T11:31:26.987Z,26.03
2019-04-03T11:33:52.450Z,24.96
2019-04-03T11:36:24.788Z,30.00
2019-04-03T11:38:53.446Z,25.16
2019-04-03T11:41:24.369Z,30.62
2019-04-03T11:43:54.177Z,30.69
2019-04-03T11:46:24.137Z,30.35
2019-04-03T11:48:53.652Z,30.31
2019-04-03T11:51:23.310Z,27.80
2019-04-03T11:53:52.739Z,25.37
2019-04-03T11:56:22.313Z,24.35
2019-04-03T11:58:52.434Z,27.94
2019-04-03T12:01:23.542Z,31.73
2019-04-03T12:03:53.032Z,29.49
2019-04-03T12:06:22.569Z,28.05
2019-04-03T12:08:52.364Z,24.73
2019-04-03T12:11:21.851Z,23.59
2019-04-03T12:13:51.786Z,26.74
2019-04-03T12:16:23.982Z,26.71
2019-04-03T12:18:52.871Z,28.89
2019-04-03T12:21:22.397Z,29.99
2019-04-03T12:23:51.903Z,29.08
2019-04-03T12:26:21.546Z,27.90
2019-04-03T12:28:51.055Z,28.71
2019-04-03T12:31:20.571Z,28.11
2019-04-03T12:33:56.418Z,28.72
2019-04-03T12:36:21.490Z,25.84
2019-04-03T12:38:52.662Z,24.37
2019-04-03T12:41:22.503Z,23.88
2019-04-03T12:43:52.723Z,22.76
2019-04-03T12:46:24.146Z,22.60
2019-04-03T12:48:53.610Z,22.94
2019-04-03T12:51:23.179Z,22.94
2019-04-03T12:53:52.691Z,22.71
2019-04-03T12:56:24.616Z,21.76
2019-04-03T12:58:53.447Z,21.89
2019-04-03T13:01:23.414Z,21.46
2019-04-03T13:03:56.075Z,21.27
2019-04-03T13:06:24.582Z,21.27
2019-04-03T13:08:54.088Z,21.59
2019-04-03T13:11:23.662Z,21.88
2019-04-03T13:13:53.181Z,21.64
2019-04-03T13:16:22.687Z,21.64
2019-04-03T13:18:52.200Z,21.55
2019-04-03T13:21:21.740Z,21.00
2019-04-03T13:23:51.221Z,21.01
2019-04-03T13:26:24.059Z,20.42
2019-04-03T13:28:52.189Z,20.35
2019-04-03T13:31:21.870Z,20.08
2019-04-03T13:33:51.369Z,19.75
2019-04-03T13:36:23.720Z,19.45
2019-04-03T13:38:52.354Z,19.09
2019-04-03T13:41:21.842Z,19.22
2019-04-03T13:43:53.820Z,19.38
2019-04-03T13:46:22.566Z,19.63
2019-04-03T13:48:52.942Z,19.48
2019-04-03T13:51:24.107Z,19.55
2019-04-03T13:53:53.996Z,19.63
2019-04-03T13:56:24.655Z,19.33
2019-04-03T13:58:54.866Z,19.48
2019-04-03T14:01:27.181Z,19.33
2019-04-03T14:03:55.613Z,19.89
2019-04-03T14:06:25.490Z,19.83
2019-04-03T14:08:55.252Z,19.64
2019-04-03T14:11:24.780Z,19.35
2019-04-03T14:13:54.298Z,19.41
2019-04-03T14:16:23.835Z,19.64
2019-04-03T14:18:53.347Z,20.01
2019-04-03T14:21:23.247Z,20.02
2019-04-03T14:23:53.107Z,19.95
2019-04-03T14:26:22.642Z,20.24
2019-04-03T14:28:52.129Z,19.90
2019-04-03T14:31:33.568Z,19.91
2019-04-03T14:33:53.014Z,19.88
2019-04-03T14:36:22.532Z,19.58
2019-04-03T14:38:52.464Z,18.95
2019-04-03T14:41:21.983Z,18.78
2019-04-03T14:43:51.481Z,18.77
2019-04-03T14:46:21.205Z,18.73
2019-04-03T14:48:50.977Z,18.52
2019-04-03T14:51:20.523Z,18.67
2019-04-03T14:53:52.213Z,18.77
2019-04-03T14:56:21.941Z,18.92
2019-04-03T14:58:51.619Z,18.80
2019-04-03T15:01:21.352Z,18.50
2019-04-03T15:03:50.815Z,18.28
2019-04-03T15:06:20.319Z,18.06
2019-04-03T15:08:50.228Z,18.20
2019-04-03T15:11:21.791Z,18.16
2019-04-03T15:13:51.568Z,18.34
2019-04-03T15:16:21.152Z,18.07
2019-04-03T15:18:50.640Z,18.08
2019-04-03T15:21:22.214Z,18.03
2019-04-03T15:23:51.365Z,17.96
2019-04-03T15:26:22.218Z,17.67
2019-04-03T15:28:52.454Z,17.85
2019-04-03T15:31:23.895Z,17.75
2019-04-03T15:33:55.433Z,17.55
2019-04-03T15:36:24.518Z,17.57
2019-04-03T15:38:54.361Z,17.62
2019-04-03T15:41:23.966Z,17.27
2019-04-03T15:43:53.473Z,17.20
2019-04-03T15:46:23.093Z,17.16
2019-04-03T15:48:53.495Z,17.27
2019-04-03T15:51:24.190Z,17.15
2019-04-03T15:53:53.784Z,17.16
2019-04-03T15:56:23.315Z,17.05
2019-04-03T15:58:53.096Z,16.97
2019-04-03T16:01:22.661Z,16.98
2019-04-03T16:03:52.444Z,16.99
2019-04-03T16:06:22.342Z,16.96
2019-04-03T16:08:53.529Z,17.00
2019-04-03T16:11:23.120Z,17.03
2019-04-03T16:13:52.651Z,16.82
2019-04-03T16:16:22.154Z,16.85
2019-04-03T16:18:51.670Z,16.80
2019-04-03T16:21:22.380Z,16.75
2019-04-03T16:23:52.388Z,16.74
2019-04-03T16:26:23.897Z,16.67
2019-04-03T16:28:53.320Z,16.69
2019-04-03T16:31:22.793Z,16.68
2019-04-03T16:33:52.395Z,16.59
2019-04-03T16:36:22.079Z,16.47
2019-04-03T16:38:51.709Z,16.50
2019-04-03T16:41:21.258Z,16.45
2019-04-03T16:43:50.735Z,16.26
2019-04-03T16:46:20.225Z,16.14
2019-04-03T16:48:50.853Z,16.06
2019-04-03T16:51:20.702Z,16.08
2019-04-03T16:53:50.575Z,16.04
2019-04-03T16:56:20.109Z,15.97
2019-04-03T16:58:50.092Z,16.01
2019-04-03T17:01:19.607Z,16.03
2019-04-03T17:03:49.361Z,16.00
2019-04-03T17:06:18.896Z,15.94
2019-04-03T17:08:48.840Z,15.84
2019-04-03T17:11:18.287Z,15.71
2019-04-03T17:13:47.797Z,15.69
2019-04-03T17:16:17.754Z,15.61
2019-04-03T17:18:47.861Z,15.55
2019-04-03T17:21:17.791Z,15.48
2019-04-03T17:23:47.340Z,15.38
2019-04-03T17:26:17.276Z,15.30
2019-04-03T17:28:46.809Z,15.15
2019-04-03T17:31:16.879Z,14.98
2019-04-03T17:33:46.402Z,14.90
2019-04-03T17:36:17.715Z,14.74
2019-04-03T17:38:48.048Z,14.62
2019-04-03T17:41:18.059Z,14.58
2019-04-03T17:43:47.587Z,14.51
2019-04-03T17:46:17.736Z,14.45
2019-04-03T17:48:47.770Z,14.33
2019-04-03T17:51:17.259Z,14.22
2019-04-03T17:53:46.775Z,14.15
2019-04-03T17:56:16.291Z,14.12
2019-04-03T17:58:47.936Z,14.03
2019-04-03T18:01:17.510Z,13.94
2019-04-03T18:03:47.842Z,13.82
2019-04-03T18:06:18.585Z,13.66
2019-04-03T18:08:48.255Z,13.65
2019-04-03T18:11:17.849Z,13.66
2019-04-03T18:13:48.736Z,13.53
2019-04-03T18:16:18.272Z,13.58
2019-04-03T18:18:49.888Z,13.41
2019-04-03T18:21:19.028Z,13.36
2019-04-03T18:23:48.534Z,13.24
2019-04-03T18:26:18.023Z,13.25
2019-04-03T18:28:47.557Z,13.17
2019-04-03T18:31:17.057Z,13.12
2019-04-03T18:33:46.833Z,12.97
2019-04-03T18:36:17.794Z,12.91
2019-04-03T18:38:47.333Z,12.98
2019-04-03T18:41:17.421Z,12.90
2019-04-03T18:43:47.016Z,12.76
2019-04-03T18:46:22.036Z,12.75
2019-04-03T18:48:53.590Z,12.62
2019-04-03T18:51:20.311Z,12.63
2019-04-03T18:53:49.937Z,12.66
2019-04-03T18:56:19.487Z,12.58
2019-04-03T18:58:49.004Z,12.65
2019-04-03T19:01:18.526Z,12.61
2019-04-03T19:03:48.032Z,12.65
2019-04-03T19:06:17.516Z,12.60
2019-04-03T19:08:49.768Z,12.62
2019-04-03T19:11:18.303Z,12.59
2019-04-03T19:13:49.452Z,12.55
2019-04-03T19:16:29.000Z,12.38
2019-04-03T19:18:50.765Z,12.47
2019-04-03T19:21:24.259Z,12.40
2019-04-03T19:23:53.693Z,12.31
2019-04-03T19:26:22.758Z,12.25
2019-04-03T19:28:52.264Z,12.30
2019-04-03T19:31:21.793Z,11.75
2019-04-03T19:33:51.295Z,11.55
2019-04-03T19:36:21.808Z,11.75
2019-04-03T19:38:53.500Z,11.19
2019-04-03T19:41:22.515Z,10.66
2019-04-03T19:43:52.048Z,10.24
2019-04-03T19:46:22.850Z,9.95
2019-04-03T19:48:52.791Z,9.73
2019-04-03T19:51:22.302Z,9.46
2019-04-03T19:53:59.157Z,9.31
2019-04-03T19:56:25.726Z,9.25
2019-04-03T19:58:54.258Z,9.53
2019-04-03T20:01:24.107Z,10.24
2019-04-03T20:03:53.610Z,10.50
2019-04-03T20:06:23.287Z,10.45
2019-04-03T20:08:52.789Z,10.24
2019-04-03T20:11:22.275Z,10.07
2019-04-03T20:13:51.789Z,9.82
2019-04-03T20:16:24.234Z,9.48
2019-04-03T20:18:52.530Z,9.38
2019-04-03T20:21:22.023Z,9.15
2019-04-03T20:23:51.526Z,9.13
2019-04-03T20:26:21.010Z,8.93
2019-04-03T20:28:50.518Z,8.75
2019-04-03T20:31:20.044Z,8.57
2019-04-03T20:33:49.669Z,8.54
2019-04-03T20:36:20.367Z,8.46
2019-04-03T20:38:50.371Z,8.25
2019-04-03T20:41:19.880Z,8.12
2019-04-03T20:43:49.663Z,8.08
2019-04-03T20:46:19.172Z,8.04
2019-04-03T20:48:48.708Z,8.04
2019-04-03T20:51:18.197Z,8.06
2019-04-03T20:53:48.164Z,8.12
2019-04-03T20:56:18.933Z,8.17
2019-04-03T20:58:55.757Z,8.10
2019-04-03T21:01:19.700Z,8.04
2019-04-03T21:03:49.196Z,8.04
2019-04-03T21:06:20.276Z,8.11
2019-04-03T21:08:49.922Z,8.12
2019-04-03T21:11:19.523Z,8.09
2019-04-03T21:13:49.015Z,8.14
2019-04-03T21:16:18.531Z,8.13
2019-04-03T21:18:48.094Z,8.14
2019-04-03T21:21:17.603Z,8.24
2019-04-03T21:23:47.093Z,8.15
2019-04-03T21:26:16.610Z,8.16
2019-04-03T21:28:46.103Z,8.25
2019-04-03T21:31:15.596Z,8.23
2019-04-03T21:33:45.341Z,8.23
2019-04-03T21:36:14.854Z,8.16
2019-04-03T21:38:44.374Z,8.07
2019-04-03T21:41:13.884Z,7.99
2019-04-03T21:43:43.377Z,7.87
2019-04-03T21:46:12.883Z,7.77
2019-04-03T21:48:44.485Z,7.72
2019-04-03T21:51:13.602Z,7.58
2019-04-03T21:53:43.099Z,7.51
2019-04-03T21:56:12.603Z,7.48
2019-04-03T21:58:42.121Z,7.49
2019-04-03T22:01:19.541Z,7.44
2019-04-03T22:03:51.357Z,7.40
2019-04-03T22:06:20.559Z,7.31
2019-04-03T22:08:51.657Z,7.25
2019-04-03T22:11:21.342Z,7.22
2019-04-03T22:13:50.822Z,7.09
2019-04-03T22:16:20.645Z,7.10
2019-04-03T22:18:51.161Z,7.06
2019-04-03T22:21:20.773Z,7.02
2019-04-03T22:23:50.277Z,7.00
2019-04-03T22:26:19.773Z,6.98
2019-04-03T22:28:49.253Z,6.92
2019-04-03T22:31:20.931Z,6.88
2019-04-03T22:33:50.529Z,7.02
2019-04-03T22:36:20.029Z,6.92
2019-04-03T22:38:49.581Z,6.88
2019-04-03T22:41:19.089Z,6.92
2019-04-03T22:43:48.667Z,6.88
2019-04-03T22:46:18.174Z,6.81
2019-04-03T22:48:47.665Z,6.73
2019-04-03T22:51:17.195Z,6.75
2019-04-03T22:53:46.683Z,6.62
2019-04-03T22:56:16.848Z,6.57
2019-04-03T22:58:46.871Z,6.58
2019-04-03T23:01:16.773Z,6.50
2019-04-03T23:03:49.033Z,6.48
2019-04-03T23:06:18.744Z,6.41
2019-04-03T23:08:48.906Z,6.40
2019-04-03T23:11:18.477Z,6.47
2019-04-03T23:13:47.988Z,6.31
2019-04-03T23:16:17.489Z,6.12
2019-04-03T23:18:47.512Z,6.09
2019-04-03T23:21:17.487Z,6.07
2019-04-03T23:23:46.987Z,6.07
2019-04-03T23:26:16.582Z,6.06
2019-04-03T23:28:46.078Z,6.13
2019-04-03T23:31:15.565Z,6.18
2019-04-03T23:33:45.939Z,6.10
2019-04-03T23:36:16.270Z,6.02
2019-04-03T23:38:45.779Z,6.04
2019-04-03T23:41:15.260Z,6.05
2019-04-03T23:43:44.804Z,6.09
2019-04-03T23:46:14.702Z,6.10
2019-04-03T23:48:44.775Z,6.04
2019-04-03T23:51:23.159Z,5.97
2019-04-03T23:53:45.494Z,5.80
2019-04-03T23:56:15.027Z,5.60
2019-04-03T23:58:44.552Z,5.39
